sensor_id;sensor_type;location;lat;lon;timestamp;temperature;humidity
4697;DHT22;2362;50.780;0.292;2022-10-13T00:00:45;15.20;99.90
4697;DHT22;2362;50.780;0.292;2022-10-13T00:03:11;15.10;99.90
4697;DHT22;2362;50.780;0.292;2022-10-13T00:05:42;15.10;99.90
4697;DHT22;2362;50.780;0.292;2022-10-13T00:08:08;15.10;99.90
4697;DHT22;2362;50.780;0.292;2022-10-13T00:11:00;15.10;99.90
4697;DHT22;2362;50.780;0.292;2022-10-13T00:13:30;15.10;99.90
4697;DHT22;2362;50.780;0.292;2022-10-13T00:15:55;15.10;99.90
4697;DHT22;2362;50.780;0.292;2022-10-13T00:18:21;15.10;99.90
4697;DHT22;2362;50.780;0.292;2022-10-13T00:20:48;15.10;99.90
4697;DHT22;2362;50.780;0.292;2022-10-13T00:23:14;15.10;99.90
4697;DHT22;2362;50.780;0.292;2022-10-13T00:25:42;15.10;99.90
4697;DHT22;2362;50.780;0.292;2022-10-13T00:28:08;15.10;99.90
4697;DHT22;2362;50.780;0.292;2022-10-13T00:30:35;15.10;99.90
4697;DHT22;2362;50.780;0.292;2022-10-13T00:33:01;15.10;99.90
4697;DHT22;2362;50.780;0.292;2022-10-13T00:35:26;15.10;99.90
4697;DHT22;2362;50.780;0.292;2022-10-13T00:37:52;15.10;99.90
4697;DHT22;2362;50.780;0.292;2022-10-13T00:40:18;15.10;99.90
4697;DHT22;2362;50.780;0.292;2022-10-13T00:42:43;15.10;99.90
4697;DHT22;2362;50.780;0.292;2022-10-13T00:45:20;15.00;99.90
4697;DHT22;2362;50.780;0.292;2022-10-13T00:47:52;15.00;99.90
4697;DHT22;2362;50.780;0.292;2022-10-13T00:50:23;15.00;99.90
4697;DHT22;2362;50.780;0.292;2022-10-13T00:52:50;15.00;99.90
4697;DHT22;2362;50.780;0.292;2022-10-13T00:55:19;14.90;99.90
4697;DHT22;2362;50.780;0.292;2022-10-13T00:57:47;14.80;99.90
4697;DHT22;2362;50.780;0.292;2022-10-13T01:00:20;14.80;99.90
4697;DHT22;2362;50.780;0.292;2022-10-13T01:02:46;14.70;99.90
4697;DHT22;2362;50.780;0.292;2022-10-13T01:05:12;14.60;99.90
4697;DHT22;2362;50.780;0.292;2022-10-13T01:07:37;14.60;99.90
4697;DHT22;2362;50.780;0.292;2022-10-13T01:10:03;14.50;99.90
4697;DHT22;2362;50.780;0.292;2022-10-13T01:42:39;13.60;99.90
4697;DHT22;2362;50.780;0.292;2022-10-13T01:45:09;13.40;99.90
4697;DHT22;2362;50.780;0.292;2022-10-13T01:47:35;13.20;99.90
4697;DHT22;2362;50.780;0.292;2022-10-13T01:50:06;13.20;99.90
4697;DHT22;2362;50.780;0.292;2022-10-13T01:52:36;13.10;99.90
4697;DHT22;2362;50.780;0.292;2022-10-13T01:55:09;13.10;99.90
4697;DHT22;2362;50.780;0.292;2022-10-13T01:57:41;13.10;99.90
4697;DHT22;2362;50.780;0.292;2022-10-13T02:00:15;13.00;99.90
4697;DHT22;2362;50.780;0.292;2022-10-13T02:03:15;13.00;99.90
4697;DHT22;2362;50.780;0.292;2022-10-13T02:10:55;13.20;99.90
4697;DHT22;2362;50.780;0.292;2022-10-13T02:13:25;13.10;99.90
4697;DHT22;2362;50.780;0.292;2022-10-13T02:15:54;13.10;99.90
4697;DHT22;2362;50.780;0.292;2022-10-13T02:18:25;13.10;99.90
4697;DHT22;2362;50.780;0.292;2022-10-13T02:20:51;13.10;99.90
4697;DHT22;2362;50.780;0.292;2022-10-13T02:23:18;13.20;99.90
4697;DHT22;2362;50.780;0.292;2022-10-13T02:25:44;13.20;99.90
4697;DHT22;2362;50.780;0.292;2022-10-13T02:28:12;13.10;99.90
4697;DHT22;2362;50.780;0.292;2022-10-13T02:30:39;13.10;99.90
4697;DHT22;2362;50.780;0.292;2022-10-13T02:33:06;13.10;99.90
4697;DHT22;2362;50.780;0.292;2022-10-13T02:35:33;13.00;99.90
4697;DHT22;2362;50.780;0.292;2022-10-13T02:37:59;13.00;99.90
4697;DHT22;2362;50.780;0.292;2022-10-13T02:40:25;13.00;99.90
4697;DHT22;2362;50.780;0.292;2022-10-13T02:42:51;13.00;99.90
4697;DHT22;2362;50.780;0.292;2022-10-13T02:45:17;12.90;99.90
4697;DHT22;2362;50.780;0.292;2022-10-13T02:47:43;12.90;99.90
4697;DHT22;2362;50.780;0.292;2022-10-13T02:50:10;12.90;99.90
4697;DHT22;2362;50.780;0.292;2022-10-13T02:52:36;12.90;99.90
4697;DHT22;2362;50.780;0.292;2022-10-13T02:55:03;12.90;99.90
4697;DHT22;2362;50.780;0.292;2022-10-13T02:57:29;13.00;99.90
4697;DHT22;2362;50.780;0.292;2022-10-13T02:59:54;12.90;99.90
4697;DHT22;2362;50.780;0.292;2022-10-13T03:02:20;12.90;99.90
4697;DHT22;2362;50.780;0.292;2022-10-13T03:04:47;12.80;99.90
4697;DHT22;2362;50.780;0.292;2022-10-13T03:07:13;12.80;99.90
4697;DHT22;2362;50.780;0.292;2022-10-13T03:09:39;12.80;99.90
4697;DHT22;2362;50.780;0.292;2022-10-13T03:12:05;12.70;99.90
4697;DHT22;2362;50.780;0.292;2022-10-13T03:14:31;12.70;99.90
4697;DHT22;2362;50.780;0.292;2022-10-13T03:16:57;12.70;99.90
4697;DHT22;2362;50.780;0.292;2022-10-13T03:19:22;12.70;99.90
4697;DHT22;2362;50.780;0.292;2022-10-13T03:21:49;12.70;99.90
4697;DHT22;2362;50.780;0.292;2022-10-13T03:24:15;12.70;99.90
4697;DHT22;2362;50.780;0.292;2022-10-13T03:26:40;12.70;99.90
4697;DHT22;2362;50.780;0.292;2022-10-13T03:29:06;12.70;99.90
4697;DHT22;2362;50.780;0.292;2022-10-13T03:31:32;12.70;99.90
4697;DHT22;2362;50.780;0.292;2022-10-13T03:33:57;12.70;99.90
4697;DHT22;2362;50.780;0.292;2022-10-13T03:36:23;12.70;99.90
4697;DHT22;2362;50.780;0.292;2022-10-13T03:38:49;12.70;99.90
4697;DHT22;2362;50.780;0.292;2022-10-13T03:41:16;12.70;99.90
4697;DHT22;2362;50.780;0.292;2022-10-13T03:43:43;12.70;99.90
4697;DHT22;2362;50.780;0.292;2022-10-13T03:46:13;12.70;99.90
4697;DHT22;2362;50.780;0.292;2022-10-13T03:48:40;12.70;99.90
4697;DHT22;2362;50.780;0.292;2022-10-13T03:51:08;12.80;99.90
4697;DHT22;2362;50.780;0.292;2022-10-13T03:53:35;12.80;99.90
4697;DHT22;2362;50.780;0.292;2022-10-13T03:56:01;12.70;99.90
4697;DHT22;2362;50.780;0.292;2022-10-13T03:58:27;12.70;99.90
4697;DHT22;2362;50.780;0.292;2022-10-13T04:00:53;12.60;99.90
4697;DHT22;2362;50.780;0.292;2022-10-13T04:03:20;12.60;99.90
4697;DHT22;2362;50.780;0.292;2022-10-13T04:05:46;12.60;99.90
4697;DHT22;2362;50.780;0.292;2022-10-13T04:08:12;12.50;99.90
4697;DHT22;2362;50.780;0.292;2022-10-13T04:10:38;12.60;99.90
4697;DHT22;2362;50.780;0.292;2022-10-13T04:13:04;12.60;99.90
4697;DHT22;2362;50.780;0.292;2022-10-13T04:15:34;12.60;99.90
4697;DHT22;2362;50.780;0.292;2022-10-13T04:18:00;12.60;99.90
4697;DHT22;2362;50.780;0.292;2022-10-13T04:20:26;12.60;99.90
4697;DHT22;2362;50.780;0.292;2022-10-13T04:22:53;12.50;99.90
4697;DHT22;2362;50.780;0.292;2022-10-13T04:25:19;12.40;99.90
4697;DHT22;2362;50.780;0.292;2022-10-13T04:27:44;12.50;99.90
4697;DHT22;2362;50.780;0.292;2022-10-13T04:30:13;12.50;99.90
4697;DHT22;2362;50.780;0.292;2022-10-13T04:32:39;12.50;99.90
4697;DHT22;2362;50.780;0.292;2022-10-13T04:35:05;12.50;99.90
4697;DHT22;2362;50.780;0.292;2022-10-13T04:37:30;12.60;99.90
4697;DHT22;2362;50.780;0.292;2022-10-13T04:39:56;12.50;99.90
4697;DHT22;2362;50.780;0.292;2022-10-13T04:42:22;12.50;99.90
4697;DHT22;2362;50.780;0.292;2022-10-13T04:44:48;12.50;99.90
4697;DHT22;2362;50.780;0.292;2022-10-13T04:47:13;12.50;99.90
4697;DHT22;2362;50.780;0.292;2022-10-13T04:49:39;12.60;99.90
4697;DHT22;2362;50.780;0.292;2022-10-13T04:52:05;12.60;99.90
4697;DHT22;2362;50.780;0.292;2022-10-13T04:54:31;12.60;99.90
4697;DHT22;2362;50.780;0.292;2022-10-13T04:56:57;12.50;99.90
4697;DHT22;2362;50.780;0.292;2022-10-13T04:59:23;12.60;99.90
4697;DHT22;2362;50.780;0.292;2022-10-13T05:01:49;12.60;99.90
4697;DHT22;2362;50.780;0.292;2022-10-13T05:04:15;12.50;99.90
4697;DHT22;2362;50.780;0.292;2022-10-13T05:06:41;12.50;99.90
4697;DHT22;2362;50.780;0.292;2022-10-13T05:09:10;12.60;99.90
4697;DHT22;2362;50.780;0.292;2022-10-13T05:11:38;12.50;99.90
4697;DHT22;2362;50.780;0.292;2022-10-13T05:14:04;12.60;99.90
4697;DHT22;2362;50.780;0.292;2022-10-13T05:16:29;12.60;99.90
4697;DHT22;2362;50.780;0.292;2022-10-13T05:18:55;12.60;99.90
4697;DHT22;2362;50.780;0.292;2022-10-13T05:21:23;12.50;99.90
4697;DHT22;2362;50.780;0.292;2022-10-13T05:23:50;12.50;99.90
4697;DHT22;2362;50.780;0.292;2022-10-13T05:26:21;12.60;99.90
4697;DHT22;2362;50.780;0.292;2022-10-13T05:28:47;12.50;99.90
4697;DHT22;2362;50.780;0.292;2022-10-13T05:33:40;12.60;99.90
4697;DHT22;2362;50.780;0.292;2022-10-13T05:36:09;12.60;99.90
4697;DHT22;2362;50.780;0.292;2022-10-13T05:38:36;12.60;99.90
4697;DHT22;2362;50.780;0.292;2022-10-13T05:41:10;12.60;99.90
4697;DHT22;2362;50.780;0.292;2022-10-13T05:43:37;12.60;99.90
4697;DHT22;2362;50.780;0.292;2022-10-13T05:46:04;12.60;99.90
4697;DHT22;2362;50.780;0.292;2022-10-13T05:48:30;12.60;99.90
4697;DHT22;2362;50.780;0.292;2022-10-13T05:50:59;12.60;99.90
4697;DHT22;2362;50.780;0.292;2022-10-13T05:53:27;12.60;99.90
4697;DHT22;2362;50.780;0.292;2022-10-13T05:55:56;12.50;99.90
4697;DHT22;2362;50.780;0.292;2022-10-13T05:58:23;12.50;99.90
4697;DHT22;2362;50.780;0.292;2022-10-13T06:00:50;12.60;99.90
4697;DHT22;2362;50.780;0.292;2022-10-13T06:03:19;12.60;99.90
4697;DHT22;2362;50.780;0.292;2022-10-13T06:05:47;12.70;99.90
4697;DHT22;2362;50.780;0.292;2022-10-13T06:08:14;12.70;99.90
4697;DHT22;2362;50.780;0.292;2022-10-13T06:10:41;12.80;99.90
4697;DHT22;2362;50.780;0.292;2022-10-13T06:13:08;12.80;99.90
4697;DHT22;2362;50.780;0.292;2022-10-13T06:15:34;12.80;99.90
4697;DHT22;2362;50.780;0.292;2022-10-13T06:17:59;12.70;99.90
4697;DHT22;2362;50.780;0.292;2022-10-13T06:20:26;12.80;99.90
4697;DHT22;2362;50.780;0.292;2022-10-13T06:22:55;12.80;99.90
4697;DHT22;2362;50.780;0.292;2022-10-13T06:25:20;12.80;99.90
4697;DHT22;2362;50.780;0.292;2022-10-13T06:27:46;12.90;99.90
4697;DHT22;2362;50.780;0.292;2022-10-13T06:30:12;12.80;99.90
4697;DHT22;2362;50.780;0.292;2022-10-13T06:32:38;12.80;99.90
4697;DHT22;2362;50.780;0.292;2022-10-13T06:35:04;12.80;99.90
4697;DHT22;2362;50.780;0.292;2022-10-13T06:37:29;12.80;99.90
4697;DHT22;2362;50.780;0.292;2022-10-13T06:39:55;12.80;99.90
4697;DHT22;2362;50.780;0.292;2022-10-13T06:42:21;12.90;99.90
4697;DHT22;2362;50.780;0.292;2022-10-13T06:44:47;12.90;99.90
4697;DHT22;2362;50.780;0.292;2022-10-13T06:47:13;12.80;99.90
4697;DHT22;2362;50.780;0.292;2022-10-13T06:49:39;12.70;99.90
4697;DHT22;2362;50.780;0.292;2022-10-13T06:52:05;12.70;99.90
4697;DHT22;2362;50.780;0.292;2022-10-13T06:54:31;12.70;99.90
4697;DHT22;2362;50.780;0.292;2022-10-13T06:56:57;12.70;99.90
4697;DHT22;2362;50.780;0.292;2022-10-13T06:59:25;12.60;99.90
4697;DHT22;2362;50.780;0.292;2022-10-13T07:01:52;12.60;99.90
4697;DHT22;2362;50.780;0.292;2022-10-13T07:04:18;12.60;99.90
4697;DHT22;2362;50.780;0.292;2022-10-13T07:06:43;12.60;99.90
4697;DHT22;2362;50.780;0.292;2022-10-13T07:09:09;12.70;99.90
4697;DHT22;2362;50.780;0.292;2022-10-13T07:11:35;12.70;99.90
4697;DHT22;2362;50.780;0.292;2022-10-13T07:14:01;12.70;99.90
4697;DHT22;2362;50.780;0.292;2022-10-13T07:16:27;12.70;99.90
4697;DHT22;2362;50.780;0.292;2022-10-13T07:18:52;12.80;99.90
4697;DHT22;2362;50.780;0.292;2022-10-13T07:21:18;12.80;99.90
4697;DHT22;2362;50.780;0.292;2022-10-13T07:23:44;12.90;99.90
4697;DHT22;2362;50.780;0.292;2022-10-13T07:26:12;12.90;99.90
4697;DHT22;2362;50.780;0.292;2022-10-13T07:28:39;12.90;99.90
4697;DHT22;2362;50.780;0.292;2022-10-13T07:31:30;12.90;99.90
4697;DHT22;2362;50.780;0.292;2022-10-13T07:33:59;12.90;99.90
4697;DHT22;2362;50.780;0.292;2022-10-13T07:36:25;12.90;99.90
4697;DHT22;2362;50.780;0.292;2022-10-13T07:38:52;12.90;99.90
4697;DHT22;2362;50.780;0.292;2022-10-13T07:41:19;12.90;99.90
4697;DHT22;2362;50.780;0.292;2022-10-13T07:43:44;12.90;99.90
4697;DHT22;2362;50.780;0.292;2022-10-13T07:46:12;12.90;99.90
4697;DHT22;2362;50.780;0.292;2022-10-13T07:48:37;13.00;99.90
4697;DHT22;2362;50.780;0.292;2022-10-13T07:51:08;13.00;99.90
4697;DHT22;2362;50.780;0.292;2022-10-13T07:53:34;13.00;99.90
4697;DHT22;2362;50.780;0.292;2022-10-13T07:56:05;13.00;99.90
4697;DHT22;2362;50.780;0.292;2022-10-13T07:58:31;13.10;99.90
4697;DHT22;2362;50.780;0.292;2022-10-13T08:01:00;13.10;99.90
4697;DHT22;2362;50.780;0.292;2022-10-13T08:03:27;13.00;99.90
4697;DHT22;2362;50.780;0.292;2022-10-13T08:05:54;13.00;99.90
4697;DHT22;2362;50.780;0.292;2022-10-13T08:08:20;13.00;99.90
4697;DHT22;2362;50.780;0.292;2022-10-13T08:10:46;13.00;99.90
4697;DHT22;2362;50.780;0.292;2022-10-13T08:13:12;13.10;99.90
4697;DHT22;2362;50.780;0.292;2022-10-13T08:15:39;13.10;99.90
4697;DHT22;2362;50.780;0.292;2022-10-13T08:18:06;13.20;99.90
4697;DHT22;2362;50.780;0.292;2022-10-13T08:20:32;13.20;99.90
4697;DHT22;2362;50.780;0.292;2022-10-13T08:22:59;13.30;99.90
4697;DHT22;2362;50.780;0.292;2022-10-13T08:25:24;13.40;99.90
4697;DHT22;2362;50.780;0.292;2022-10-13T08:27:50;13.30;99.90
4697;DHT22;2362;50.780;0.292;2022-10-13T08:30:16;13.40;99.90
4697;DHT22;2362;50.780;0.292;2022-10-13T08:32:42;13.40;99.90
4697;DHT22;2362;50.780;0.292;2022-10-13T08:35:08;13.30;99.90
4697;DHT22;2362;50.780;0.292;2022-10-13T08:37:34;13.30;99.90
4697;DHT22;2362;50.780;0.292;2022-10-13T08:40:00;13.30;99.90
4697;DHT22;2362;50.780;0.292;2022-10-13T08:42:26;13.40;99.90
4697;DHT22;2362;50.780;0.292;2022-10-13T08:44:54;13.40;99.90
4697;DHT22;2362;50.780;0.292;2022-10-13T08:49:59;13.50;99.90
4697;DHT22;2362;50.780;0.292;2022-10-13T08:52:28;13.50;99.90
4697;DHT22;2362;50.780;0.292;2022-10-13T08:54:55;13.50;99.90
4697;DHT22;2362;50.780;0.292;2022-10-13T08:57:21;13.60;99.90
4697;DHT22;2362;50.780;0.292;2022-10-13T08:59:48;13.60;99.90
4697;DHT22;2362;50.780;0.292;2022-10-13T09:02:24;13.70;99.90
4697;DHT22;2362;50.780;0.292;2022-10-13T09:04:54;13.70;99.90
4697;DHT22;2362;50.780;0.292;2022-10-13T09:07:25;13.80;99.90
4697;DHT22;2362;50.780;0.292;2022-10-13T09:09:53;13.70;99.90
4697;DHT22;2362;50.780;0.292;2022-10-13T09:12:19;13.80;99.90
4697;DHT22;2362;50.780;0.292;2022-10-13T09:15:07;13.70;99.90
4697;DHT22;2362;50.780;0.292;2022-10-13T09:17:36;13.70;99.90
4697;DHT22;2362;50.780;0.292;2022-10-13T09:20:18;13.80;99.90
4697;DHT22;2362;50.780;0.292;2022-10-13T09:25:25;13.90;99.90
4697;DHT22;2362;50.780;0.292;2022-10-13T09:35:29;14.00;99.90
4697;DHT22;2362;50.780;0.292;2022-10-13T09:38:04;13.90;99.90
4697;DHT22;2362;50.780;0.292;2022-10-13T09:40:31;13.90;99.90
4697;DHT22;2362;50.780;0.292;2022-10-13T09:42:59;14.00;99.90
4697;DHT22;2362;50.780;0.292;2022-10-13T09:45:26;13.80;99.90
4697;DHT22;2362;50.780;0.292;2022-10-13T09:48:03;13.80;99.90
4697;DHT22;2362;50.780;0.292;2022-10-13T09:50:32;13.80;99.90
4697;DHT22;2362;50.780;0.292;2022-10-13T09:53:24;13.80;99.90
4697;DHT22;2362;50.780;0.292;2022-10-13T09:58:35;13.90;99.90
4697;DHT22;2362;50.780;0.292;2022-10-13T10:01:02;13.90;99.90
4697;DHT22;2362;50.780;0.292;2022-10-13T10:03:33;14.00;99.90
4697;DHT22;2362;50.780;0.292;2022-10-13T10:06:06;13.90;99.90
4697;DHT22;2362;50.780;0.292;2022-10-13T10:08:58;13.80;99.90
4697;DHT22;2362;50.780;0.292;2022-10-13T10:11:29;13.90;99.90
4697;DHT22;2362;50.780;0.292;2022-10-13T10:13:59;14.00;99.90
4697;DHT22;2362;50.780;0.292;2022-10-13T10:16:40;13.90;99.90
4697;DHT22;2362;50.780;0.292;2022-10-13T10:19:18;14.00;99.90
4697;DHT22;2362;50.780;0.292;2022-10-13T10:22:13;13.90;99.90
4697;DHT22;2362;50.780;0.292;2022-10-13T10:27:29;14.20;99.90
4697;DHT22;2362;50.780;0.292;2022-10-13T10:30:03;14.30;99.90
4697;DHT22;2362;50.780;0.292;2022-10-13T10:33:06;14.30;99.90
4697;DHT22;2362;50.780;0.292;2022-10-13T10:44:13;14.30;99.90
4697;DHT22;2362;50.780;0.292;2022-10-13T10:46:47;14.40;99.90
4697;DHT22;2362;50.780;0.292;2022-10-13T10:49:29;14.40;99.90
4697;DHT22;2362;50.780;0.292;2022-10-13T10:51:55;14.50;99.90
4697;DHT22;2362;50.780;0.292;2022-10-13T10:57:28;14.50;99.90
4697;DHT22;2362;50.780;0.292;2022-10-13T11:00:12;14.50;99.90
4697;DHT22;2362;50.780;0.292;2022-10-13T11:05:14;14.60;99.90
4697;DHT22;2362;50.780;0.292;2022-10-13T11:17:47;14.70;99.90
4697;DHT22;2362;50.780;0.292;2022-10-13T11:25:40;14.80;99.90
4697;DHT22;2362;50.780;0.292;2022-10-13T11:30:49;14.70;99.90
4697;DHT22;2362;50.780;0.292;2022-10-13T11:36:30;14.80;99.90
4697;DHT22;2362;50.780;0.292;2022-10-13T11:39:12;14.60;99.90
4697;DHT22;2362;50.780;0.292;2022-10-13T11:52:44;14.70;99.90
4697;DHT22;2362;50.780;0.292;2022-10-13T12:00:55;14.60;99.90
4697;DHT22;2362;50.780;0.292;2022-10-13T12:03:27;14.60;99.90
4697;DHT22;2362;50.780;0.292;2022-10-13T12:08:40;14.60;99.90
4697;DHT22;2362;50.780;0.292;2022-10-13T12:11:36;14.60;99.90
4697;DHT22;2362;50.780;0.292;2022-10-13T12:14:02;14.70;99.90
4697;DHT22;2362;50.780;0.292;2022-10-13T12:16:30;14.90;99.90
4697;DHT22;2362;50.780;0.292;2022-10-13T12:19:23;14.90;99.90
4697;DHT22;2362;50.780;0.292;2022-10-13T12:21:51;14.90;99.90
4697;DHT22;2362;50.780;0.292;2022-10-13T12:24:20;14.80;99.90
4697;DHT22;2362;50.780;0.292;2022-10-13T12:26:46;14.80;99.90
4697;DHT22;2362;50.780;0.292;2022-10-13T12:29:13;14.90;99.90
4697;DHT22;2362;50.780;0.292;2022-10-13T12:31:48;15.00;99.90
4697;DHT22;2362;50.780;0.292;2022-10-13T12:34:24;15.00;99.90
4697;DHT22;2362;50.780;0.292;2022-10-13T12:37:04;15.10;99.90
4697;DHT22;2362;50.780;0.292;2022-10-13T12:39:31;15.20;99.90
4697;DHT22;2362;50.780;0.292;2022-10-13T12:41:59;15.20;99.90
4697;DHT22;2362;50.780;0.292;2022-10-13T12:44:29;15.20;99.90
4697;DHT22;2362;50.780;0.292;2022-10-13T12:46:57;15.10;99.90
4697;DHT22;2362;50.780;0.292;2022-10-13T12:49:29;15.00;99.90
4697;DHT22;2362;50.780;0.292;2022-10-13T12:54:39;15.00;99.90
4697;DHT22;2362;50.780;0.292;2022-10-13T13:00:04;15.00;99.90
4697;DHT22;2362;50.780;0.292;2022-10-13T13:02:31;15.00;99.90
4697;DHT22;2362;50.780;0.292;2022-10-13T13:04:58;15.00;99.90
4697;DHT22;2362;50.780;0.292;2022-10-13T13:07:30;14.90;99.90
4697;DHT22;2362;50.780;0.292;2022-10-13T13:10:23;14.90;99.90
4697;DHT22;2362;50.780;0.292;2022-10-13T13:12:49;15.00;99.90
4697;DHT22;2362;50.780;0.292;2022-10-13T13:17:43;15.30;99.90
4697;DHT22;2362;50.780;0.292;2022-10-13T13:20:23;15.10;99.90
4697;DHT22;2362;50.780;0.292;2022-10-13T13:22:50;15.00;99.90
4697;DHT22;2362;50.780;0.292;2022-10-13T13:25:16;15.00;99.90
4697;DHT22;2362;50.780;0.292;2022-10-13T13:27:42;15.00;99.90
4697;DHT22;2362;50.780;0.292;2022-10-13T13:30:12;15.10;99.90
4697;DHT22;2362;50.780;0.292;2022-10-13T13:32:38;15.20;99.90
4697;DHT22;2362;50.780;0.292;2022-10-13T13:35:05;15.30;99.90
4697;DHT22;2362;50.780;0.292;2022-10-13T13:37:53;15.30;99.90
4697;DHT22;2362;50.780;0.292;2022-10-13T13:40:21;15.40;99.90
4697;DHT22;2362;50.780;0.292;2022-10-13T13:42:47;15.40;99.90
4697;DHT22;2362;50.780;0.292;2022-10-13T13:45:18;15.50;99.90
4697;DHT22;2362;50.780;0.292;2022-10-13T13:47:45;15.40;99.90
4697;DHT22;2362;50.780;0.292;2022-10-13T13:50:32;15.40;99.90
4697;DHT22;2362;50.780;0.292;2022-10-13T13:52:59;15.40;99.90
4697;DHT22;2362;50.780;0.292;2022-10-13T13:55:27;15.40;99.90
4697;DHT22;2362;50.780;0.292;2022-10-13T13:57:54;15.40;99.90
4697;DHT22;2362;50.780;0.292;2022-10-13T14:00:20;15.30;99.90
4697;DHT22;2362;50.780;0.292;2022-10-13T14:02:46;15.30;99.90
4697;DHT22;2362;50.780;0.292;2022-10-13T14:05:12;15.30;99.90
4697;DHT22;2362;50.780;0.292;2022-10-13T14:07:38;15.30;99.90
4697;DHT22;2362;50.780;0.292;2022-10-13T14:10:06;15.20;99.90
4697;DHT22;2362;50.780;0.292;2022-10-13T14:12:32;15.20;99.90
4697;DHT22;2362;50.780;0.292;2022-10-13T14:14:58;15.40;99.90
4697;DHT22;2362;50.780;0.292;2022-10-13T14:17:25;15.40;99.90
4697;DHT22;2362;50.780;0.292;2022-10-13T14:19:51;15.40;99.90
4697;DHT22;2362;50.780;0.292;2022-10-13T14:22:17;15.40;99.90
4697;DHT22;2362;50.780;0.292;2022-10-13T14:24:43;15.30;99.90
4697;DHT22;2362;50.780;0.292;2022-10-13T14:27:08;15.30;99.90
4697;DHT22;2362;50.780;0.292;2022-10-13T14:29:35;15.40;99.90
4697;DHT22;2362;50.780;0.292;2022-10-13T14:32:01;15.30;99.90
4697;DHT22;2362;50.780;0.292;2022-10-13T14:34:27;15.40;99.90
4697;DHT22;2362;50.780;0.292;2022-10-13T14:36:52;15.50;99.90
4697;DHT22;2362;50.780;0.292;2022-10-13T14:39:18;15.40;99.90
4697;DHT22;2362;50.780;0.292;2022-10-13T14:41:44;15.40;99.90
4697;DHT22;2362;50.780;0.292;2022-10-13T14:44:11;15.30;99.90
4697;DHT22;2362;50.780;0.292;2022-10-13T14:46:38;15.30;99.90
4697;DHT22;2362;50.780;0.292;2022-10-13T14:49:03;15.30;99.90
4697;DHT22;2362;50.780;0.292;2022-10-13T14:51:31;15.40;99.90
4697;DHT22;2362;50.780;0.292;2022-10-13T14:53:57;15.40;99.90
4697;DHT22;2362;50.780;0.292;2022-10-13T14:56:25;15.40;99.90
4697;DHT22;2362;50.780;0.292;2022-10-13T14:58:59;15.40;99.90
4697;DHT22;2362;50.780;0.292;2022-10-13T15:01:26;15.30;99.90
4697;DHT22;2362;50.780;0.292;2022-10-13T15:03:52;15.30;99.90
4697;DHT22;2362;50.780;0.292;2022-10-13T15:06:20;15.20;99.90
4697;DHT22;2362;50.780;0.292;2022-10-13T15:08:47;15.20;99.90
4697;DHT22;2362;50.780;0.292;2022-10-13T15:11:14;15.20;99.90
4697;DHT22;2362;50.780;0.292;2022-10-13T15:13:40;15.20;99.90
4697;DHT22;2362;50.780;0.292;2022-10-13T15:16:07;15.20;99.90
4697;DHT22;2362;50.780;0.292;2022-10-13T15:18:37;15.20;99.90
4697;DHT22;2362;50.780;0.292;2022-10-13T15:21:04;15.20;99.90
4697;DHT22;2362;50.780;0.292;2022-10-13T15:23:30;15.20;99.90
4697;DHT22;2362;50.780;0.292;2022-10-13T15:25:59;15.10;99.90
4697;DHT22;2362;50.780;0.292;2022-10-13T15:28:27;15.10;99.90
4697;DHT22;2362;50.780;0.292;2022-10-13T15:30:54;15.10;99.90
4697;DHT22;2362;50.780;0.292;2022-10-13T15:33:20;15.10;99.90
4697;DHT22;2362;50.780;0.292;2022-10-13T15:35:50;15.10;99.90
4697;DHT22;2362;50.780;0.292;2022-10-13T15:38:17;15.10;99.90
4697;DHT22;2362;50.780;0.292;2022-10-13T15:40:43;15.10;99.90
4697;DHT22;2362;50.780;0.292;2022-10-13T15:43:09;15.10;99.90
4697;DHT22;2362;50.780;0.292;2022-10-13T15:45:35;15.20;99.90
4697;DHT22;2362;50.780;0.292;2022-10-13T15:48:01;15.20;99.90
4697;DHT22;2362;50.780;0.292;2022-10-13T15:50:27;15.20;99.90
4697;DHT22;2362;50.780;0.292;2022-10-13T15:52:53;15.20;99.90
4697;DHT22;2362;50.780;0.292;2022-10-13T15:55:19;15.20;99.90
4697;DHT22;2362;50.780;0.292;2022-10-13T15:57:44;15.10;99.90
4697;DHT22;2362;50.780;0.292;2022-10-13T16:00:13;15.10;99.90
4697;DHT22;2362;50.780;0.292;2022-10-13T16:02:40;15.20;99.90
4697;DHT22;2362;50.780;0.292;2022-10-13T16:05:08;15.20;99.90
4697;DHT22;2362;50.780;0.292;2022-10-13T16:07:34;15.10;99.90
4697;DHT22;2362;50.780;0.292;2022-10-13T16:10:00;15.10;99.90
4697;DHT22;2362;50.780;0.292;2022-10-13T16:12:28;15.10;99.90
4697;DHT22;2362;50.780;0.292;2022-10-13T16:14:53;15.10;99.90
4697;DHT22;2362;50.780;0.292;2022-10-13T16:17:19;15.10;99.90
4697;DHT22;2362;50.780;0.292;2022-10-13T16:19:45;15.10;99.90
4697;DHT22;2362;50.780;0.292;2022-10-13T16:22:11;15.10;99.90
4697;DHT22;2362;50.780;0.292;2022-10-13T16:24:37;15.00;99.90
4697;DHT22;2362;50.780;0.292;2022-10-13T16:27:02;15.00;99.90
4697;DHT22;2362;50.780;0.292;2022-10-13T16:29:28;15.00;99.90
4697;DHT22;2362;50.780;0.292;2022-10-13T16:31:54;15.10;99.90
4697;DHT22;2362;50.780;0.292;2022-10-13T16:34:20;15.10;99.90
4697;DHT22;2362;50.780;0.292;2022-10-13T16:36:47;15.10;99.90
4697;DHT22;2362;50.780;0.292;2022-10-13T16:39:15;15.10;99.90
4697;DHT22;2362;50.780;0.292;2022-10-13T16:41:41;15.10;99.90
4697;DHT22;2362;50.780;0.292;2022-10-13T16:44:06;15.10;99.90
4697;DHT22;2362;50.780;0.292;2022-10-13T16:46:33;15.10;99.90
4697;DHT22;2362;50.780;0.292;2022-10-13T16:48:59;15.00;99.90
4697;DHT22;2362;50.780;0.292;2022-10-13T16:51:25;15.00;99.90
4697;DHT22;2362;50.780;0.292;2022-10-13T16:53:53;15.00;99.90
4697;DHT22;2362;50.780;0.292;2022-10-13T16:56:20;15.00;99.90
4697;DHT22;2362;50.780;0.292;2022-10-13T16:58:52;15.00;99.90
4697;DHT22;2362;50.780;0.292;2022-10-13T17:01:19;15.10;99.90
4697;DHT22;2362;50.780;0.292;2022-10-13T17:03:46;15.10;99.90
4697;DHT22;2362;50.780;0.292;2022-10-13T17:06:14;15.10;99.90
4697;DHT22;2362;50.780;0.292;2022-10-13T17:08:41;15.00;99.90
4697;DHT22;2362;50.780;0.292;2022-10-13T17:11:07;15.00;99.90
4697;DHT22;2362;50.780;0.292;2022-10-13T17:13:34;15.00;99.90
4697;DHT22;2362;50.780;0.292;2022-10-13T17:16:03;15.00;99.90
4697;DHT22;2362;50.780;0.292;2022-10-13T17:18:29;15.00;99.90
4697;DHT22;2362;50.780;0.292;2022-10-13T17:21:00;15.00;99.90
4697;DHT22;2362;50.780;0.292;2022-10-13T17:23:27;15.00;99.90
4697;DHT22;2362;50.780;0.292;2022-10-13T17:25:54;15.00;99.90
4697;DHT22;2362;50.780;0.292;2022-10-13T17:28:20;15.00;99.90
4697;DHT22;2362;50.780;0.292;2022-10-13T17:31:13;15.00;99.90
4697;DHT22;2362;50.780;0.292;2022-10-13T17:33:40;15.00;99.90
4697;DHT22;2362;50.780;0.292;2022-10-13T17:36:18;14.90;99.90
4697;DHT22;2362;50.780;0.292;2022-10-13T17:38:47;14.90;99.90
4697;DHT22;2362;50.780;0.292;2022-10-13T17:41:13;14.90;99.90
4697;DHT22;2362;50.780;0.292;2022-10-13T17:43:39;14.80;99.90
4697;DHT22;2362;50.780;0.292;2022-10-13T17:48:35;14.80;99.90
4697;DHT22;2362;50.780;0.292;2022-10-13T17:51:05;14.80;99.90
4697;DHT22;2362;50.780;0.292;2022-10-13T17:53:32;14.80;99.90
4697;DHT22;2362;50.780;0.292;2022-10-13T17:56:03;14.80;99.90
4697;DHT22;2362;50.780;0.292;2022-10-13T17:58:31;14.70;99.90
4697;DHT22;2362;50.780;0.292;2022-10-13T18:01:14;14.70;99.90
4697;DHT22;2362;50.780;0.292;2022-10-13T18:03:45;14.70;99.90
4697;DHT22;2362;50.780;0.292;2022-10-13T18:06:11;14.60;99.90
4697;DHT22;2362;50.780;0.292;2022-10-13T18:08:38;14.60;99.90
4697;DHT22;2362;50.780;0.292;2022-10-13T18:11:06;14.60;99.90